sensor_id;sensor_type;location;lat;lon;timestamp;temperature;humidity
13600;DHT22;6871;51.34740610;4.31323160;2023-05-21T00:21:22;20.40;88.00
13600;DHT22;6871;51.34740610;4.31323160;2023-05-21T00:23:57;20.40;88.00
13600;DHT22;6871;51.34740610;4.31323160;2023-05-21T00:29:53;20.40;87.40
13600;DHT22;6871;51.34740610;4.31323160;2023-05-21T00:32:31;20.40;87.50
13600;DHT22;6871;51.34740610;4.31323160;2023-05-21T00:35:04;20.40;87.80
13600;DHT22;6871;51.34740610;4.31323160;2023-05-21T00:37:40;20.40;87.30
13600;DHT22;6871;51.34740610;4.31323160;2023-05-21T00:40:16;20.40;87.30
13600;DHT22;6871;51.34740610;4.31323160;2023-05-21T00:50:13;20.40;87.10
13600;DHT22;6871;51.34740610;4.31323160;2023-05-21T01:03:27;20.30;86.30
13600;DHT22;6871;51.34740610;4.31323160;2023-05-21T01:13:14;20.30;87.10
13600;DHT22;6871;51.34740610;4.31323160;2023-05-21T01:16:23;20.30;86.90
13600;DHT22;6871;51.34740610;4.31323160;2023-05-21T01:25:50;20.20;86.70
13600;DHT22;6871;51.34740610;4.31323160;2023-05-21T01:28:30;20.20;86.70
13600;DHT22;6871;51.34740610;4.31323160;2023-05-21T03:24:31;20.00;86.40
13600;DHT22;6871;51.34740610;4.31323160;2023-05-21T04:48:40;19.90;85.30
13600;DHT22;6871;51.34740610;4.31323160;2023-05-21T05:11:56;19.80;85.50
13600;DHT22;6871;51.34740610;4.31323160;2023-05-21T05:14:39;19.80;85.40
13600;DHT22;6871;51.34740610;4.31323160;2023-05-21T05:30:37;19.80;85.10
13600;DHT22;6871;51.34740610;4.31323160;2023-05-21T05:50:31;19.80;84.80
13600;DHT22;6871;51.34740610;4.31323160;2023-05-21T06:13:24;19.80;84.90
13600;DHT22;6871;51.34740610;4.31323160;2023-05-21T06:16:21;19.70;85.00
13600;DHT22;6871;51.34740610;4.31323160;2023-05-21T06:18:52;19.70;85.00
13600;DHT22;6871;51.34740610;4.31323160;2023-05-21T06:21:22;19.70;84.90
13600;DHT22;6871;51.34740610;4.31323160;2023-05-21T06:23:52;19.80;84.80
13600;DHT22;6871;51.34740610;4.31323160;2023-05-21T06:26:21;19.80;84.90
13600;DHT22;6871;51.34740610;4.31323160;2023-05-21T06:28:51;19.80;84.70
13600;DHT22;6871;51.34740610;4.31323160;2023-05-21T06:31:20;19.90;84.60
13600;DHT22;6871;51.34740610;4.31323160;2023-05-21T06:33:49;19.90;84.60
13600;DHT22;6871;51.34740610;4.31323160;2023-05-21T06:36:18;19.90;84.40
13600;DHT22;6871;51.34740610;4.31323160;2023-05-21T06:38:48;19.90;84.40
13600;DHT22;6871;51.34740610;4.31323160;2023-05-21T06:41:17;19.90;84.20
13600;DHT22;6871;51.34740610;4.31323160;2023-05-21T06:43:46;19.90;84.20
13600;DHT22;6871;51.34740610;4.31323160;2023-05-21T06:46:15;19.90;84.20
13600;DHT22;6871;51.34740610;4.31323160;2023-05-21T06:48:44;19.90;84.20
13600;DHT22;6871;51.34740610;4.31323160;2023-05-21T06:51:14;20.00;84.20
13600;DHT22;6871;51.34740610;4.31323160;2023-05-21T06:53:43;19.90;85.00
13600;DHT22;6871;51.34740610;4.31323160;2023-05-21T06:56:12;19.90;84.30
13600;DHT22;6871;51.34740610;4.31323160;2023-05-21T06:58:42;19.90;84.30
13600;DHT22;6871;51.34740610;4.31323160;2023-05-21T07:01:11;19.90;84.20
13600;DHT22;6871;51.34740610;4.31323160;2023-05-21T07:03:40;19.90;84.20
13600;DHT22;6871;51.34740610;4.31323160;2023-05-21T07:06:09;19.90;84.40
13600;DHT22;6871;51.34740610;4.31323160;2023-05-21T07:08:38;19.90;84.30
13600;DHT22;6871;51.34740610;4.31323160;2023-05-21T07:11:07;19.90;84.20
13600;DHT22;6871;51.34740610;4.31323160;2023-05-21T07:13:36;19.90;84.10
13600;DHT22;6871;51.34740610;4.31323160;2023-05-21T07:16:06;20.00;84.20
13600;DHT22;6871;51.34740610;4.31323160;2023-05-21T07:18:35;20.00;85.10
13600;DHT22;6871;51.34740610;4.31323160;2023-05-21T07:21:05;19.90;84.20
13600;DHT22;6871;51.34740610;4.31323160;2023-05-21T07:23:34;19.90;84.20
13600;DHT22;6871;51.34740610;4.31323160;2023-05-21T07:26:03;20.00;84.20
13600;DHT22;6871;51.34740610;4.31323160;2023-05-21T07:28:32;20.00;84.10
13600;DHT22;6871;51.34740610;4.31323160;2023-05-21T07:31:01;20.00;84.10
13600;DHT22;6871;51.34740610;4.31323160;2023-05-21T07:33:31;20.00;84.20
13600;DHT22;6871;51.34740610;4.31323160;2023-05-21T07:36:00;20.00;84.10
13600;DHT22;6871;51.34740610;4.31323160;2023-05-21T07:38:29;20.00;84.10
13600;DHT22;6871;51.34740610;4.31323160;2023-05-21T07:40:59;20.00;84.00
13600;DHT22;6871;51.34740610;4.31323160;2023-05-21T07:43:28;20.10;84.00
13600;DHT22;6871;51.34740610;4.31323160;2023-05-21T07:45:57;20.10;84.10
13600;DHT22;6871;51.34740610;4.31323160;2023-05-21T07:48:26;20.10;84.00
13600;DHT22;6871;51.34740610;4.31323160;2023-05-21T07:50:55;20.10;84.10
13600;DHT22;6871;51.34740610;4.31323160;2023-05-21T07:53:24;20.10;84.10
13600;DHT22;6871;51.34740610;4.31323160;2023-05-21T07:55:53;20.10;84.20
13600;DHT22;6871;51.34740610;4.31323160;2023-05-21T07:58:22;20.10;84.10
13600;DHT22;6871;51.34740610;4.31323160;2023-05-21T08:00:51;20.10;84.10
13600;DHT22;6871;51.34740610;4.31323160;2023-05-21T08:03:20;20.10;84.00
13600;DHT22;6871;51.34740610;4.31323160;2023-05-21T08:05:50;20.10;84.00
13600;DHT22;6871;51.34740610;4.31323160;2023-05-21T08:08:20;20.10;84.00
13600;DHT22;6871;51.34740610;4.31323160;2023-05-21T08:10:50;20.10;84.00
13600;DHT22;6871;51.34740610;4.31323160;2023-05-21T08:13:21;20.10;83.90
13600;DHT22;6871;51.34740610;4.31323160;2023-05-21T08:15:50;20.10;84.00
13600;DHT22;6871;51.34740610;4.31323160;2023-05-21T08:18:20;20.10;84.00
13600;DHT22;6871;51.34740610;4.31323160;2023-05-21T08:20:50;20.10;84.00
13600;DHT22;6871;51.34740610;4.31323160;2023-05-21T08:23:20;20.10;84.20
13600;DHT22;6871;51.34740610;4.31323160;2023-05-21T08:25:49;20.10;84.30
13600;DHT22;6871;51.34740610;4.31323160;2023-05-21T08:28:21;20.20;84.40
13600;DHT22;6871;51.34740610;4.31323160;2023-05-21T08:30:50;20.20;84.20
13600;DHT22;6871;51.34740610;4.31323160;2023-05-21T08:33:19;20.20;84.10
13600;DHT22;6871;51.34740610;4.31323160;2023-05-21T08:35:48;20.20;84.10
13600;DHT22;6871;51.34740610;4.31323160;2023-05-21T08:38:18;20.30;84.10
13600;DHT22;6871;51.34740610;4.31323160;2023-05-21T08:40:47;20.20;84.10
13600;DHT22;6871;51.34740610;4.31323160;2023-05-21T08:43:18;20.30;84.10
13600;DHT22;6871;51.34740610;4.31323160;2023-05-21T08:48:30;20.30;84.00
13600;DHT22;6871;51.34740610;4.31323160;2023-05-21T08:50:59;20.30;84.00
13600;DHT22;6871;51.34740610;4.31323160;2023-05-21T08:53:28;20.30;83.90
13600;DHT22;6871;51.34740610;4.31323160;2023-05-21T08:55:57;20.20;84.30
13600;DHT22;6871;51.34740610;4.31323160;2023-05-21T08:58:26;20.20;84.30
13600;DHT22;6871;51.34740610;4.31323160;2023-05-21T09:00:56;20.30;84.30
13600;DHT22;6871;51.34740610;4.31323160;2023-05-21T09:03:25;20.40;84.10
13600;DHT22;6871;51.34740610;4.31323160;2023-05-21T09:05:59;20.40;84.00
13600;DHT22;6871;51.34740610;4.31323160;2023-05-21T09:15:55;20.50;83.80
13600;DHT22;6871;51.34740610;4.31323160;2023-05-21T09:18:24;20.50;83.80
13600;DHT22;6871;51.34740610;4.31323160;2023-05-21T09:20:54;20.50;84.10
13600;DHT22;6871;51.34740610;4.31323160;2023-05-21T09:23:23;20.60;84.10
13600;DHT22;6871;51.34740610;4.31323160;2023-05-21T09:25:55;20.60;84.00
13600;DHT22;6871;51.34740610;4.31323160;2023-05-21T09:28:25;20.60;84.00
13600;DHT22;6871;51.34740610;4.31323160;2023-05-21T09:30:54;20.60;84.00
13600;DHT22;6871;51.34740610;4.31323160;2023-05-21T09:33:34;20.60;84.10
13600;DHT22;6871;51.34740610;4.31323160;2023-05-21T09:36:07;20.60;84.20
13600;DHT22;6871;51.34740610;4.31323160;2023-05-21T09:38:36;20.60;84.10
13600;DHT22;6871;51.34740610;4.31323160;2023-05-21T09:41:06;20.60;84.10
13600;DHT22;6871;51.34740610;4.31323160;2023-05-21T09:43:36;20.70;84.30
13600;DHT22;6871;51.34740610;4.31323160;2023-05-21T09:46:05;20.70;84.20
13600;DHT22;6871;51.34740610;4.31323160;2023-05-21T09:48:35;20.70;84.10
13600;DHT22;6871;51.34740610;4.31323160;2023-05-21T09:51:23;20.70;84.00
13600;DHT22;6871;51.34740610;4.31323160;2023-05-21T09:53:55;20.70;84.20
13600;DHT22;6871;51.34740610;4.31323160;2023-05-21T09:56:26;20.80;84.20
13600;DHT22;6871;51.34740610;4.31323160;2023-05-21T09:59:09;20.70;84.00
13600;DHT22;6871;51.34740610;4.31323160;2023-05-21T10:01:39;20.80;84.00
13600;DHT22;6871;51.34740610;4.31323160;2023-05-21T10:04:08;20.80;84.20
13600;DHT22;6871;51.34740610;4.31323160;2023-05-21T10:06:43;20.80;84.30
13600;DHT22;6871;51.34740610;4.31323160;2023-05-21T10:09:16;20.80;84.30
13600;DHT22;6871;51.34740610;4.31323160;2023-05-21T10:11:50;20.80;84.20
13600;DHT22;6871;51.34740610;4.31323160;2023-05-21T10:14:24;20.80;84.20
13600;DHT22;6871;51.34740610;4.31323160;2023-05-21T10:16:54;20.80;84.20
13600;DHT22;6871;51.34740610;4.31323160;2023-05-21T10:19:24;20.90;84.20
13600;DHT22;6871;51.34740610;4.31323160;2023-05-21T10:21:54;20.80;83.90
13600;DHT22;6871;51.34740610;4.31323160;2023-05-21T10:24:24;20.90;84.10
13600;DHT22;6871;51.34740610;4.31323160;2023-05-21T10:26:54;20.80;83.90
13600;DHT22;6871;51.34740610;4.31323160;2023-05-21T10:29:25;20.90;84.10
13600;DHT22;6871;51.34740610;4.31323160;2023-05-21T10:31:56;20.90;84.00
13600;DHT22;6871;51.34740610;4.31323160;2023-05-21T10:34:29;21.00;84.20
13600;DHT22;6871;51.34740610;4.31323160;2023-05-21T10:37:02;20.90;84.20
13600;DHT22;6871;51.34740610;4.31323160;2023-05-21T10:39:33;21.00;84.20
13600;DHT22;6871;51.34740610;4.31323160;2023-05-21T10:42:11;21.00;84.20
13600;DHT22;6871;51.34740610;4.31323160;2023-05-21T10:44:50;21.10;84.30
13600;DHT22;6871;51.34740610;4.31323160;2023-05-21T11:00:28;21.00;84.70
13600;DHT22;6871;51.34740610;4.31323160;2023-05-21T11:06:06;21.10;84.80
13600;DHT22;6871;51.34740610;4.31323160;2023-05-21T11:08:49;21.10;84.80
13600;DHT22;6871;51.34740610;4.31323160;2023-05-21T11:14:34;21.10;85.00
13600;DHT22;6871;51.34740610;4.31323160;2023-05-21T11:17:11;21.10;85.00
13600;DHT22;6871;51.34740610;4.31323160;2023-05-21T11:19:43;21.10;85.00
13600;DHT22;6871;51.34740610;4.31323160;2023-05-21T11:22:36;21.10;85.10
13600;DHT22;6871;51.34740610;4.31323160;2023-05-21T11:25:08;21.10;84.90
13600;DHT22;6871;51.34740610;4.31323160;2023-05-21T11:27:41;21.10;85.00
13600;DHT22;6871;51.34740610;4.31323160;2023-05-21T11:30:17;21.10;85.00
13600;DHT22;6871;51.34740610;4.31323160;2023-05-21T11:35:58;21.10;85.30
13600;DHT22;6871;51.34740610;4.31323160;2023-05-21T11:38:29;21.10;85.20
13600;DHT22;6871;51.34740610;4.31323160;2023-05-21T11:41:05;21.10;85.30
13600;DHT22;6871;51.34740610;4.31323160;2023-05-21T11:44:00;21.10;85.30
13600;DHT22;6871;51.34740610;4.31323160;2023-05-21T11:46:31;21.10;85.30
13600;DHT22;6871;51.34740610;4.31323160;2023-05-21T11:49:08;21.10;85.50
13600;DHT22;6871;51.34740610;4.31323160;2023-05-21T11:54:17;21.10;85.60
13600;DHT22;6871;51.34740610;4.31323160;2023-05-21T11:56:47;21.10;85.50
13600;DHT22;6871;51.34740610;4.31323160;2023-05-21T11:59:17;21.20;85.50
13600;DHT22;6871;51.34740610;4.31323160;2023-05-21T12:01:46;21.20;85.30
13600;DHT22;6871;51.34740610;4.31323160;2023-05-21T12:04:16;21.10;85.30
13600;DHT22;6871;51.34740610;4.31323160;2023-05-21T12:06:46;21.10;85.60
13600;DHT22;6871;51.34740610;4.31323160;2023-05-21T12:09:18;21.10;85.70
13600;DHT22;6871;51.34740610;4.31323160;2023-05-21T12:11:48;21.10;85.70
13600;DHT22;6871;51.34740610;4.31323160;2023-05-21T12:14:18;21.10;85.10
13600;DHT22;6871;51.34740610;4.31323160;2023-05-21T12:16:47;21.00;85.70
13600;DHT22;6871;51.34740610;4.31323160;2023-05-21T12:19:18;21.00;85.10
13600;DHT22;6871;51.34740610;4.31323160;2023-05-21T12:21:48;21.00;85.30
13600;DHT22;6871;51.34740610;4.31323160;2023-05-21T12:24:18;21.00;85.10
13600;DHT22;6871;51.34740610;4.31323160;2023-05-21T12:26:49;21.10;85.70
13600;DHT22;6871;51.34740610;4.31323160;2023-05-21T12:29:18;21.20;86.00
13600;DHT22;6871;51.34740610;4.31323160;2023-05-21T12:31:50;21.20;85.80
13600;DHT22;6871;51.34740610;4.31323160;2023-05-21T12:34:42;21.20;85.30
13600;DHT22;6871;51.34740610;4.31323160;2023-05-21T12:37:25;21.20;85.90
13600;DHT22;6871;51.34740610;4.31323160;2023-05-21T12:40:00;21.20;86.10
13600;DHT22;6871;51.34740610;4.31323160;2023-05-21T12:42:32;21.20;85.60
13600;DHT22;6871;51.34740610;4.31323160;2023-05-21T12:45:20;21.30;86.10
13600;DHT22;6871;51.34740610;4.31323160;2023-05-21T12:48:08;21.20;85.90
13600;DHT22;6871;51.34740610;4.31323160;2023-05-21T12:54:02;21.20;86.00
13600;DHT22;6871;51.34740610;4.31323160;2023-05-21T12:56:43;21.20;86.30
13600;DHT22;6871;51.34740610;4.31323160;2023-05-21T12:59:15;21.20;87.00
13600;DHT22;6871;51.34740610;4.31323160;2023-05-21T13:01:47;21.20;86.40
13600;DHT22;6871;51.34740610;4.31323160;2023-05-21T13:04:22;21.20;86.40
13600;DHT22;6871;51.34740610;4.31323160;2023-05-21T13:06:52;21.20;86.30
13600;DHT22;6871;51.34740610;4.31323160;2023-05-21T13:09:21;21.20;86.20
13600;DHT22;6871;51.34740610;4.31323160;2023-05-21T13:11:53;21.20;86.40
13600;DHT22;6871;51.34740610;4.31323160;2023-05-21T13:14:22;21.20;86.80
13600;DHT22;6871;51.34740610;4.31323160;2023-05-21T13:16:51;21.20;86.40
13600;DHT22;6871;51.34740610;4.31323160;2023-05-21T13:19:23;21.20;86.50
13600;DHT22;6871;51.34740610;4.31323160;2023-05-21T13:21:52;21.20;86.40
13600;DHT22;6871;51.34740610;4.31323160;2023-05-21T13:24:21;21.30;86.70
13600;DHT22;6871;51.34740610;4.31323160;2023-05-21T13:26:51;21.30;86.30
13600;DHT22;6871;51.34740610;4.31323160;2023-05-21T13:29:30;21.20;86.50
13600;DHT22;6871;51.34740610;4.31323160;2023-05-21T13:32:01;21.20;86.40
13600;DHT22;6871;51.34740610;4.31323160;2023-05-21T13:34:31;21.20;86.60
13600;DHT22;6871;51.34740610;4.31323160;2023-05-21T13:37:00;21.20;86.60
13600;DHT22;6871;51.34740610;4.31323160;2023-05-21T13:39:32;21.20;86.60
13600;DHT22;6871;51.34740610;4.31323160;2023-05-21T13:42:01;21.30;86.60
13600;DHT22;6871;51.34740610;4.31323160;2023-05-21T13:44:32;21.30;86.50
13600;DHT22;6871;51.34740610;4.31323160;2023-05-21T13:47:02;21.30;86.60
13600;DHT22;6871;51.34740610;4.31323160;2023-05-21T13:49:33;21.30;86.60
13600;DHT22;6871;51.34740610;4.31323160;2023-05-21T13:52:02;21.30;86.50
13600;DHT22;6871;51.34740610;4.31323160;2023-05-21T13:54:40;21.30;86.70
13600;DHT22;6871;51.34740610;4.31323160;2023-05-21T13:57:13;21.30;86.80
13600;DHT22;6871;51.34740610;4.31323160;2023-05-21T13:59:43;21.30;86.70
13600;DHT22;6871;51.34740610;4.31323160;2023-05-21T14:02:13;21.40;86.90
13600;DHT22;6871;51.34740610;4.31323160;2023-05-21T14:04:54;21.40;87.00
13600;DHT22;6871;51.34740610;4.31323160;2023-05-21T14:07:23;21.40;87.00
13600;DHT22;6871;51.34740610;4.31323160;2023-05-21T14:09:53;21.40;87.00
13600;DHT22;6871;51.34740610;4.31323160;2023-05-21T14:12:23;21.40;87.00
13600;DHT22;6871;51.34740610;4.31323160;2023-05-21T14:14:54;21.40;87.00
13600;DHT22;6871;51.34740610;4.31323160;2023-05-21T14:17:29;21.40;87.00
13600;DHT22;6871;51.34740610;4.31323160;2023-05-21T14:20:12;21.40;87.00
13600;DHT22;6871;51.34740610;4.31323160;2023-05-21T14:22:47;21.40;87.00
13600;DHT22;6871;51.34740610;4.31323160;2023-05-21T14:25:17;21.40;87.00
13600;DHT22;6871;51.34740610;4.31323160;2023-05-21T14:27:46;21.40;86.90
13600;DHT22;6871;51.34740610;4.31323160;2023-05-21T14:30:16;21.40;87.00
13600;DHT22;6871;51.34740610;4.31323160;2023-05-21T14:32:45;21.40;86.70
13600;DHT22;6871;51.34740610;4.31323160;2023-05-21T14:35:14;21.40;86.50
13600;DHT22;6871;51.34740610;4.31323160;2023-05-21T14:37:44;21.40;86.90
13600;DHT22;6871;51.34740610;4.31323160;2023-05-21T14:40:14;21.40;86.90
13600;DHT22;6871;51.34740610;4.31323160;2023-05-21T14:42:44;21.40;87.10
13600;DHT22;6871;51.34740610;4.31323160;2023-05-21T14:45:13;21.40;86.90
13600;DHT22;6871;51.34740610;4.31323160;2023-05-21T14:47:43;21.40;86.90
13600;DHT22;6871;51.34740610;4.31323160;2023-05-21T14:50:13;21.40;86.90
13600;DHT22;6871;51.34740610;4.31323160;2023-05-21T14:52:43;21.40;87.10
13600;DHT22;6871;51.34740610;4.31323160;2023-05-21T14:55:13;21.50;87.30
13600;DHT22;6871;51.34740610;4.31323160;2023-05-21T14:57:44;21.50;87.40
13600;DHT22;6871;51.34740610;4.31323160;2023-05-21T15:00:15;21.50;87.00
13600;DHT22;6871;51.34740610;4.31323160;2023-05-21T15:02:45;21.50;87.30
13600;DHT22;6871;51.34740610;4.31323160;2023-05-21T15:05:14;21.40;87.20
13600;DHT22;6871;51.34740610;4.31323160;2023-05-21T15:07:45;21.40;87.20
13600;DHT22;6871;51.34740610;4.31323160;2023-05-21T15:10:17;21.50;87.30
13600;DHT22;6871;51.34740610;4.31323160;2023-05-21T15:12:47;21.40;87.20
13600;DHT22;6871;51.34740610;4.31323160;2023-05-21T15:15:17;21.50;87.40
13600;DHT22;6871;51.34740610;4.31323160;2023-05-21T15:17:48;21.50;87.50
13600;DHT22;6871;51.34740610;4.31323160;2023-05-21T15:20:18;21.40;87.10
13600;DHT22;6871;51.34740610;4.31323160;2023-05-21T15:22:48;21.40;87.20
13600;DHT22;6871;51.34740610;4.31323160;2023-05-21T15:25:17;21.40;87.40
13600;DHT22;6871;51.34740610;4.31323160;2023-05-21T15:27:46;21.50;87.60
13600;DHT22;6871;51.34740610;4.31323160;2023-05-21T15:30:16;21.50;87.80
13600;DHT22;6871;51.34740610;4.31323160;2023-05-21T15:32:47;21.50;87.60
13600;DHT22;6871;51.34740610;4.31323160;2023-05-21T15:35:17;21.50;87.50
13600;DHT22;6871;51.34740610;4.31323160;2023-05-21T15:37:46;21.60;87.60
13600;DHT22;6871;51.34740610;4.31323160;2023-05-21T15:40:17;21.60;87.60
13600;DHT22;6871;51.34740610;4.31323160;2023-05-21T15:42:46;21.60;87.50
13600;DHT22;6871;51.34740610;4.31323160;2023-05-21T15:45:16;21.60;87.60
13600;DHT22;6871;51.34740610;4.31323160;2023-05-21T15:47:47;21.60;87.60
13600;DHT22;6871;51.34740610;4.31323160;2023-05-21T15:50:18;21.60;87.60
13600;DHT22;6871;51.34740610;4.31323160;2023-05-21T15:52:48;21.60;87.40
13600;DHT22;6871;51.34740610;4.31323160;2023-05-21T15:55:17;21.70;87.60
13600;DHT22;6871;51.34740610;4.31323160;2023-05-21T15:57:48;21.70;87.60
13600;DHT22;6871;51.34740610;4.31323160;2023-05-21T16:00:23;21.70;87.50
13600;DHT22;6871;51.34740610;4.31323160;2023-05-21T16:02:52;21.70;88.40
13600;DHT22;6871;51.34740610;4.31323160;2023-05-21T16:05:25;21.70;87.60
13600;DHT22;6871;51.34740610;4.31323160;2023-05-21T16:07:55;21.70;87.60
13600;DHT22;6871;51.34740610;4.31323160;2023-05-21T16:10:29;21.70;87.50
13600;DHT22;6871;51.34740610;4.31323160;2023-05-21T16:12:59;21.70;87.60
13600;DHT22;6871;51.34740610;4.31323160;2023-05-21T16:15:28;21.70;87.60
13600;DHT22;6871;51.34740610;4.31323160;2023-05-21T16:17:59;21.80;87.40
13600;DHT22;6871;51.34740610;4.31323160;2023-05-21T16:20:29;21.80;87.40
13600;DHT22;6871;51.34740610;4.31323160;2023-05-21T16:23:00;21.80;87.50
13600;DHT22;6871;51.34740610;4.31323160;2023-05-21T16:25:30;21.80;87.50
13600;DHT22;6871;51.34740610;4.31323160;2023-05-21T16:27:59;21.80;87.40
13600;DHT22;6871;51.34740610;4.31323160;2023-05-21T16:30:29;21.70;87.60
13600;DHT22;6871;51.34740610;4.31323160;2023-05-21T16:32:59;21.80;87.80
13600;DHT22;6871;51.34740610;4.31323160;2023-05-21T16:35:30;21.80;87.80
13600;DHT22;6871;51.34740610;4.31323160;2023-05-21T16:38:00;21.80;87.80
13600;DHT22;6871;51.34740610;4.31323160;2023-05-21T16:40:29;21.80;87.40
13600;DHT22;6871;51.34740610;4.31323160;2023-05-21T16:42:59;21.70;86.70
13600;DHT22;6871;51.34740610;4.31323160;2023-05-21T16:45:34;21.70;87.20
13600;DHT22;6871;51.34740610;4.31323160;2023-05-21T16:48:08;21.70;87.80
13600;DHT22;6871;51.34740610;4.31323160;2023-05-21T16:50:38;21.80;87.80
13600;DHT22;6871;51.34740610;4.31323160;2023-05-21T16:53:08;21.80;87.80
13600;DHT22;6871;51.34740610;4.31323160;2023-05-21T16:55:38;21.80;87.90
13600;DHT22;6871;51.34740610;4.31323160;2023-05-21T16:58:09;21.90;87.80
13600;DHT22;6871;51.34740610;4.31323160;2023-05-21T17:00:42;21.90;87.80
13600;DHT22;6871;51.34740610;4.31323160;2023-05-21T17:03:11;21.90;87.80
13600;DHT22;6871;51.34740610;4.31323160;2023-05-21T17:05:41;21.80;87.40
13600;DHT22;6871;51.34740610;4.31323160;2023-05-21T17:08:10;21.80;86.80
13600;DHT22;6871;51.34740610;4.31323160;2023-05-21T17:10:39;21.80;86.60
13600;DHT22;6871;51.34740610;4.31323160;2023-05-21T17:13:09;21.80;87.00
13600;DHT22;6871;51.34740610;4.31323160;2023-05-21T17:15:40;21.80;87.60
13600;DHT22;6871;51.34740610;4.31323160;2023-05-21T17:18:12;21.90;87.90
13600;DHT22;6871;51.34740610;4.31323160;2023-05-21T17:20:42;21.80;87.50
13600;DHT22;6871;51.34740610;4.31323160;2023-05-21T17:23:12;21.80;87.90
13600;DHT22;6871;51.34740610;4.31323160;2023-05-21T17:25:41;21.80;87.20
13600;DHT22;6871;51.34740610;4.31323160;2023-05-21T17:28:31;21.70;87.30
13600;DHT22;6871;51.34740610;4.31323160;2023-05-21T17:31:02;21.80;87.60
13600;DHT22;6871;51.34740610;4.31323160;2023-05-21T17:33:50;21.80;88.00
13600;DHT22;6871;51.34740610;4.31323160;2023-05-21T17:36:20;21.80;88.00
13600;DHT22;6871;51.34740610;4.31323160;2023-05-21T17:38:50;21.90;88.10
13600;DHT22;6871;51.34740610;4.31323160;2023-05-21T17:47:48;21.90;88.30
13600;DHT22;6871;51.34740610;4.31323160;2023-05-21T17:50:18;21.90;88.60
13600;DHT22;6871;51.34740610;4.31323160;2023-05-21T17:52:47;21.90;88.70
13600;DHT22;6871;51.34740610;4.31323160;2023-05-21T17:55:16;21.90;89.60
13600;DHT22;6871;51.34740610;4.31323160;2023-05-21T17:57:45;21.90;88.70
13600;DHT22;6871;51.34740610;4.31323160;2023-05-21T18:00:15;21.90;88.70
13600;DHT22;6871;51.34740610;4.31323160;2023-05-21T18:02:45;21.90;88.60
13600;DHT22;6871;51.34740610;4.31323160;2023-05-21T18:05:16;21.90;88.40
13600;DHT22;6871;51.34740610;4.31323160;2023-05-21T18:07:46;21.90;88.30
13600;DHT22;6871;51.34740610;4.31323160;2023-05-21T18:10:15;21.90;88.60
13600;DHT22;6871;51.34740610;4.31323160;2023-05-21T18:12:45;21.90;88.70
13600;DHT22;6871;51.34740610;4.31323160;2023-05-21T18:15:14;21.90;88.70
13600;DHT22;6871;51.34740610;4.31323160;2023-05-21T18:17:43;21.90;88.80
13600;DHT22;6871;51.34740610;4.31323160;2023-05-21T18:20:14;21.80;87.60
13600;DHT22;6871;51.34740610;4.31323160;2023-05-21T18:22:43;21.80;87.60
13600;DHT22;6871;51.34740610;4.31323160;2023-05-21T18:25:12;21.80;88.00
13600;DHT22;6871;51.34740610;4.31323160;2023-05-21T18:30:20;21.80;88.70
13600;DHT22;6871;51.34740610;4.31323160;2023-05-21T18:32:49;21.80;88.60
13600;DHT22;6871;51.34740610;4.31323160;2023-05-21T18:35:18;21.80;88.50
13600;DHT22;6871;51.34740610;4.31323160;2023-05-21T18:37:47;21.80;88.70
13600;DHT22;6871;51.34740610;4.31323160;2023-05-21T18:40:17;21.80;88.70
13600;DHT22;6871;51.34740610;4.31323160;2023-05-21T18:42:48;21.70;88.70
13600;DHT22;6871;51.34740610;4.31323160;2023-05-21T18:45:20;21.80;88.60
13600;DHT22;6871;51.34740610;4.31323160;2023-05-21T18:47:50;21.80;88.60
13600;DHT22;6871;51.34740610;4.31323160;2023-05-21T18:50:21;21.80;88.70
13600;DHT22;6871;51.34740610;4.31323160;2023-05-21T18:52:50;21.80;88.70
13600;DHT22;6871;51.34740610;4.31323160;2023-05-21T18:55:21;21.70;88.70
13600;DHT22;6871;51.34740610;4.31323160;2023-05-21T18:57:50;21.70;88.90
13600;DHT22;6871;51.34740610;4.31323160;2023-05-21T19:00:38;21.70;88.90
13600;DHT22;6871;51.34740610;4.31323160;2023-05-21T19:03:08;21.70;88.90
13600;DHT22;6871;51.34740610;4.31323160;2023-05-21T19:05:42;21.70;87.80
13600;DHT22;6871;51.34740610;4.31323160;2023-05-21T19:08:11;21.60;87.30
13600;DHT22;6871;51.34740610;4.31323160;2023-05-21T19:10:40;21.60;87.10
13600;DHT22;6871;51.34740610;4.31323160;2023-05-21T19:13:09;21.60;87.20
13600;DHT22;6871;51.34740610;4.31323160;2023-05-21T19:15:39;21.60;87.00
13600;DHT22;6871;51.34740610;4.31323160;2023-05-21T19:18:09;21.60;87.00
13600;DHT22;6871;51.34740610;4.31323160;2023-05-21T19:20:40;21.60;87.10
13600;DHT22;6871;51.34740610;4.31323160;2023-05-21T19:23:10;21.60;87.10
13600;DHT22;6871;51.34740610;4.31323160;2023-05-21T19:25:39;21.60;87.30
13600;DHT22;6871;51.34740610;4.31323160;2023-05-21T19:28:08;21.60;87.40
13600;DHT22;6871;51.34740610;4.31323160;2023-05-21T19:30:37;21.60;87.40
13600;DHT22;6871;51.34740610;4.31323160;2023-05-21T19:33:06;21.60;87.70
13600;DHT22;6871;51.34740610;4.31323160;2023-05-21T19:35:36;21.60;87.50
13600;DHT22;6871;51.34740610;4.31323160;2023-05-21T19:38:05;21.60;87.40
13600;DHT22;6871;51.34740610;4.31323160;2023-05-21T19:40:35;21.60;87.40
13600;DHT22;6871;51.34740610;4.31323160;2023-05-21T19:45:54;21.60;87.60
13600;DHT22;6871;51.34740610;4.31323160;2023-05-21T19:48:24;21.50;87.80
13600;DHT22;6871;51.34740610;4.31323160;2023-05-21T19:50:53;21.60;87.80
13600;DHT22;6871;51.34740610;4.31323160;2023-05-21T19:53:23;21.50;87.60
13600;DHT22;6871;51.34740610;4.31323160;2023-05-21T19:55:56;21.50;87.60
13600;DHT22;6871;51.34740610;4.31323160;2023-05-21T20:01:53;21.50;87.70
13600;DHT22;6871;51.34740610;4.31323160;2023-05-21T20:04:22;21.50;87.80
13600;DHT22;6871;51.34740610;4.31323160;2023-05-21T20:06:51;21.40;87.50
13600;DHT22;6871;51.34740610;4.31323160;2023-05-21T20:09:20;21.30;87.60
13600;DHT22;6871;51.34740610;4.31323160;2023-05-21T20:11:50;21.30;88.00
13600;DHT22;6871;51.34740610;4.31323160;2023-05-21T20:14:19;21.30;87.80